createdAt,value
2018-07-22T00:01:51.421Z,100883.53
2018-07-22T00:06:53.599Z,100883.48
2018-07-22T00:11:55.745Z,100886.05
2018-07-22T00:16:57.898Z,100877.91
2018-07-22T00:22:00.073Z,100876.14
2018-07-22T00:27:02.227Z,100876.55
2018-07-22T00:32:04.685Z,100882.53
2018-07-22T00:37:06.873Z,100879.84
2018-07-22T00:42:09.021Z,100882.47
2018-07-22T00:47:11.182Z,100884.75
2018-07-22T00:52:13.351Z,100874.85
2018-07-22T00:57:15.509Z,100872.98
2018-07-22T01:02:17.693Z,100867.30
2018-07-22T01:07:19.829Z,100863.53
2018-07-22T01:12:22.124Z,100863.23
2018-07-22T01:17:24.296Z,100862.77
2018-07-22T01:22:26.454Z,100865.69
2018-07-22T01:27:28.575Z,100872.84
2018-07-22T01:32:30.738Z,100872.81
2018-07-22T01:37:32.959Z,100873.72
2018-07-22T01:42:35.119Z,100871.53
2018-07-22T01:47:37.279Z,100869.35
2018-07-22T01:52:39.434Z,100867.53
2018-07-22T01:57:41.545Z,100864.56
2018-07-22T02:02:43.695Z,100828.02
2018-07-22T02:07:45.799Z,100846.50
2018-07-22T02:12:47.926Z,100846.33
2018-07-22T02:17:50.046Z,100853.23
2018-07-22T02:22:52.163Z,100850.99
2018-07-22T02:27:54.311Z,100853.24
2018-07-22T02:32:56.502Z,100852.02
2018-07-22T02:37:58.631Z,100852.09
2018-07-22T02:43:00.721Z,100860.29
2018-07-22T02:48:02.899Z,100858.50
2018-07-22T02:53:05.034Z,100853.80
2018-07-22T02:58:07.173Z,100837.70
2018-07-22T03:03:09.306Z,100827.48
2018-07-22T03:08:11.421Z,100830.83
2018-07-22T03:13:13.542Z,100837.27
2018-07-22T03:18:15.659Z,100841.63
2018-07-22T03:23:17.807Z,100836.09
2018-07-22T03:28:19.939Z,100834.09
2018-07-22T03:33:22.087Z,100838.97
2018-07-22T03:38:24.245Z,100827.50
2018-07-22T03:43:26.367Z,100830.11
2018-07-22T03:48:28.514Z,100828.86
2018-07-22T03:53:30.679Z,100826.30
2018-07-22T03:58:32.808Z,100832.19
2018-07-22T04:03:34.939Z,100831.70
2018-07-22T04:08:37.083Z,100841.68
2018-07-22T04:13:39.186Z,100837.02
2018-07-22T04:18:45.860Z,100833.63
2018-07-22T04:23:48.245Z,100828.86
2018-07-22T04:28:50.839Z,100831.39
2018-07-22T04:33:52.943Z,100829.10
2018-07-22T04:38:55.066Z,100826.90
2018-07-22T04:43:57.181Z,100828.66
2018-07-22T04:48:59.351Z,100830.41
2018-07-22T04:54:01.510Z,100838.05
2018-07-22T04:59:03.657Z,100840.16
2018-07-22T05:04:05.787Z,100840.53
2018-07-22T05:09:09.419Z,100840.98
2018-07-22T05:14:11.593Z,100837.16
2018-07-22T05:19:13.735Z,100837.51
2018-07-22T05:24:15.872Z,100827.60
2018-07-22T05:29:18.020Z,100830.56
2018-07-22T05:34:20.153Z,100829.33
2018-07-22T05:39:22.298Z,100824.50
2018-07-22T05:44:24.430Z,100829.48
2018-07-22T05:49:26.623Z,100831.91
2018-07-22T05:54:28.759Z,100834.18
2018-07-22T05:59:30.885Z,100833.51
2018-07-22T06:04:33.044Z,100834.91
2018-07-22T06:09:35.240Z,100837.95
2018-07-22T06:14:37.396Z,100832.10
2018-07-22T06:19:39.545Z,100832.89
2018-07-22T06:24:41.678Z,100835.64
2018-07-22T06:29:43.859Z,100824.91
2018-07-22T06:34:46.001Z,100819.66
2018-07-22T06:39:48.136Z,100813.44
2018-07-22T06:44:50.301Z,100825.25
2018-07-22T06:49:52.506Z,100812.93
2018-07-22T06:54:54.687Z,100813.56
2018-07-22T06:59:56.856Z,100826.90
2018-07-22T07:04:59.008Z,100822.05
2018-07-22T07:10:01.361Z,100829.98
2018-07-22T07:15:04.122Z,100833.73
2018-07-22T07:20:06.309Z,100831.78
2018-07-22T07:25:08.445Z,100841.17
2018-07-22T07:30:10.635Z,100837.95
2018-07-22T07:35:12.795Z,100842.69
2018-07-22T07:40:14.969Z,100845.59
2018-07-22T07:45:17.124Z,100846.26
2018-07-22T07:50:19.347Z,100841.36
2018-07-22T07:55:21.516Z,100838.52
2018-07-22T08:00:23.707Z,100835.64
2018-07-22T08:05:26.751Z,100844.50
2018-07-22T08:10:28.935Z,100841.36
2018-07-22T08:15:31.093Z,100848.62
2018-07-22T08:20:33.272Z,100852.61
2018-07-22T08:25:35.414Z,100853.53
2018-07-22T08:30:37.594Z,100856.88
2018-07-22T08:35:41.658Z,100846.67
2018-07-22T08:40:43.909Z,100855.48
2018-07-22T08:45:46.265Z,100853.57
2018-07-22T08:50:48.474Z,100859.89
2018-07-22T08:55:51.013Z,100858.02
2018-07-22T09:00:53.639Z,100869.14
2018-07-22T09:05:55.838Z,100866.22
2018-07-22T09:10:58.040Z,100861.81
2018-07-22T09:16:00.239Z,100868.23
2018-07-22T09:21:02.382Z,100869.21
2018-07-22T09:26:04.611Z,100871.30
2018-07-22T09:31:07.054Z,100874.56
2018-07-22T09:36:09.390Z,100878.65
2018-07-22T09:41:11.495Z,100878.33
2018-07-22T09:46:13.771Z,100872.86
2018-07-22T09:51:15.969Z,100877.87
2018-07-22T09:56:19.601Z,100883.69
2018-07-22T10:01:21.896Z,100885.34
2018-07-22T10:06:24.072Z,100887.98
2018-07-22T10:11:26.264Z,100887.16
2018-07-22T10:16:28.431Z,100879.94
2018-07-22T10:21:30.608Z,100883.96
2018-07-22T10:26:32.843Z,100887.28
2018-07-22T10:31:35.237Z,100892.59
2018-07-22T10:36:37.480Z,100886.23
2018-07-22T10:41:39.908Z,100887.63
2018-07-22T10:46:42.725Z,100899.50
2018-07-22T10:51:44.955Z,100890.31
2018-07-22T10:56:47.157Z,100894.11
2018-07-22T11:01:49.478Z,100891.39
2018-07-22T11:06:51.703Z,100887.64
2018-07-22T11:11:53.911Z,100885.98
2018-07-22T11:16:56.120Z,100895.73
2018-07-22T11:21:58.377Z,100899.08
2018-07-22T11:27:00.566Z,100898.94
2018-07-22T11:32:02.766Z,100895.02
2018-07-22T11:37:04.960Z,100896.05
2018-07-22T11:42:07.177Z,100899.62
2018-07-22T11:47:09.567Z,100906.95
2018-07-22T11:52:11.831Z,100895.27
2018-07-22T11:57:13.996Z,100906.95
2018-07-22T12:02:16.147Z,100903.83
2018-07-22T12:07:18.360Z,100909.23
2018-07-22T12:12:20.550Z,100907.50
2018-07-22T12:17:22.696Z,100906.84
2018-07-22T12:22:24.860Z,100904.08
2018-07-22T12:27:26.994Z,100910.77
2018-07-22T12:32:29.386Z,100904.80
2018-07-22T12:37:31.561Z,100905.81
2018-07-22T12:42:33.759Z,100896.09
2018-07-22T12:47:35.932Z,100907.34
2018-07-22T12:52:38.167Z,100903.69
2018-07-22T12:57:40.561Z,100901.20
2018-07-22T13:02:42.723Z,100899.54
2018-07-22T13:07:44.876Z,100888.76
2018-07-22T13:12:47.230Z,100881.25
2018-07-22T13:17:49.386Z,100872.83
2018-07-22T13:22:51.606Z,100887.20
2018-07-22T13:27:53.821Z,100889.83
2018-07-22T13:32:56.143Z,100897.50
2018-07-22T13:37:58.418Z,100883.92
2018-07-22T13:43:01.875Z,100882.84
2018-07-22T13:48:04.191Z,100895.62
2018-07-22T13:53:06.420Z,100888.58
2018-07-22T13:58:08.613Z,100887.83
2018-07-22T14:03:10.798Z,100897.14
2018-07-22T14:08:12.981Z,100899.30
2018-07-22T14:13:15.159Z,100908.86
2018-07-22T14:18:17.343Z,100917.10
2018-07-22T14:23:19.497Z,100909.78
2018-07-22T14:28:21.629Z,100919.81
2018-07-22T14:33:23.786Z,100927.88
2018-07-22T14:38:25.961Z,100922.20
2018-07-22T14:43:28.135Z,100922.15
2018-07-22T14:48:30.352Z,100938.77
2018-07-22T14:53:32.578Z,100925.00
2018-07-22T14:58:34.777Z,100933.69
2018-07-22T15:03:36.972Z,100932.87
2018-07-22T15:08:39.203Z,100939.45
2018-07-22T15:13:41.413Z,100940.48
2018-07-22T15:18:43.559Z,100945.52
2018-07-22T15:23:45.727Z,100942.53
2018-07-22T15:28:47.925Z,100956.09
2018-07-22T15:33:50.131Z,100948.48
2018-07-22T15:38:52.256Z,100955.22
2018-07-22T15:43:54.615Z,100963.91
2018-07-22T15:48:56.766Z,100967.52
2018-07-22T15:53:59.034Z,100973.17
2018-07-22T15:59:01.249Z,100978.67
2018-07-22T16:04:04.569Z,100985.69
2018-07-22T16:09:08.562Z,100975.22
2018-07-22T16:14:10.965Z,100983.53
2018-07-22T16:19:13.130Z,100972.91
2018-07-22T16:24:15.282Z,100979.50
2018-07-22T16:29:17.438Z,100989.28
2018-07-22T16:34:19.669Z,100984.25
2018-07-22T16:39:21.847Z,100992.27
2018-07-22T16:44:24.037Z,100988.48
2018-07-22T16:49:26.247Z,100989.16
2018-07-22T16:54:28.503Z,100990.15
2018-07-22T16:59:30.655Z,100988.78
2018-07-22T17:04:32.793Z,100996.52
2018-07-22T17:09:34.979Z,100989.05
2018-07-22T17:14:37.171Z,101000.75
2018-07-22T17:19:39.379Z,101005.20
2018-07-22T17:24:41.570Z,100996.58
2018-07-22T17:29:43.928Z,101012.73
2018-07-22T17:34:46.091Z,101015.06
2018-07-22T17:39:48.250Z,101024.03
2018-07-22T17:44:50.412Z,101030.87
2018-07-22T17:49:52.598Z,101033.75
2018-07-22T17:54:54.850Z,101045.16
2018-07-22T17:59:57.040Z,101041.46
2018-07-22T18:04:59.216Z,101043.52
2018-07-22T18:10:01.406Z,101045.70
2018-07-22T18:15:03.937Z,101050.28
2018-07-22T18:20:06.139Z,101049.97
2018-07-22T18:25:08.343Z,101057.33
2018-07-22T18:30:10.593Z,101055.89
2018-07-22T18:35:12.779Z,101060.31
2018-07-22T18:40:14.931Z,101060.34
2018-07-22T18:45:17.079Z,101055.16
2018-07-22T18:50:19.227Z,101065.00
2018-07-22T18:55:21.483Z,101064.12
2018-07-22T19:00:23.776Z,101068.13
2018-07-22T19:05:26.156Z,101076.06
2018-07-22T19:10:28.449Z,101084.78
2018-07-22T19:15:30.668Z,101087.25
2018-07-22T19:20:32.935Z,101089.53
2018-07-22T19:25:35.132Z,101093.93
2018-07-22T19:30:37.363Z,101094.61
2018-07-22T19:35:39.578Z,101114.83
2018-07-22T19:40:41.730Z,101112.64
2018-07-22T19:45:44.057Z,101110.09
2018-07-22T19:50:46.240Z,101117.80
2018-07-22T19:55:48.449Z,101119.95
2018-07-22T20:00:50.635Z,101118.66
2018-07-22T20:05:52.848Z,101122.94
2018-07-22T20:10:55.082Z,101125.13
2018-07-22T20:15:57.286Z,101125.95
2018-07-22T20:20:59.550Z,101136.24
2018-07-22T20:26:01.753Z,101139.67
2018-07-22T20:31:03.988Z,101140.09
2018-07-22T20:36:06.194Z,101143.12
2018-07-22T20:41:08.343Z,101155.15
2018-07-22T20:46:10.548Z,101159.52
2018-07-22T20:51:12.794Z,101161.70
2018-07-22T20:56:15.024Z,101169.08
2018-07-22T21:01:17.160Z,101167.81
2018-07-22T21:06:19.335Z,101164.84
2018-07-22T21:11:21.507Z,101168.28
2018-07-22T21:16:23.707Z,101172.13
2018-07-22T21:21:25.878Z,101172.14
2018-07-22T21:26:28.066Z,101171.72
2018-07-22T21:31:30.253Z,101166.59
2018-07-22T21:36:32.441Z,101176.01
2018-07-22T21:41:34.926Z,101173.02
2018-07-22T21:46:37.211Z,101174.73
2018-07-22T21:51:39.399Z,101185.44
2018-07-22T21:56:41.642Z,101180.28
2018-07-22T22:01:43.811Z,101181.56
2018-07-22T22:06:46.024Z,101182.43
2018-07-22T22:11:48.244Z,101188.80
2018-07-22T22:16:50.617Z,101187.94
2018-07-22T22:21:52.807Z,101189.63
2018-07-22T22:26:54.986Z,101189.59
2018-07-22T22:31:57.191Z,101197.73
2018-07-22T22:36:59.391Z,101203.73
2018-07-22T22:42:01.602Z,101199.86
2018-07-22T22:47:03.868Z,101198.08
2018-07-22T22:52:06.048Z,101198.53
2018-07-22T22:57:08.243Z,101210.50
2018-07-22T23:02:11.050Z,101209.64
2018-07-22T23:07:13.204Z,101208.30
2018-07-22T23:12:15.380Z,101215.08
2018-07-22T23:17:17.543Z,101214.70
2018-07-22T23:22:19.690Z,101207.81
2018-07-22T23:27:21.899Z,101209.03
2018-07-22T23:32:24.056Z,101213.23
2018-07-22T23:37:26.208Z,101207.63
2018-07-22T23:42:28.392Z,101208.94
2018-07-22T23:47:30.924Z,101209.39
2018-07-22T23:52:33.079Z,101211.09
2018-07-22T23:57:35.331Z,101212.30
